Terminal Aerodrome Forecast
Issued by NWS Jacksonville, FL

Home | Current Version | Previous Version | Text Only | Print | Product List | Glossary On
Versions: 1 2 3 4 5 6 7 8 9 10 11 12 13 14 15 16 17 18 19 20 21 22 23 24 25 26 27 28 29 30 31 32 33 34 35 36 37 38 39 40 41 42 43 44 45 46
723
FTUS42 KJAX 212235 AAA
TAFSSI
TAF AMD
KSSI 212235Z 2123/2218 13007KT P6SM VCSH SCT015 OVC035
      TEMPO 2123/2201 3SM SHRA OVC012
     FM220100 11008KT P6SM VCSH BKN030 OVC050
     FM220500 15006KT 6SM BR OVC025
     FM221000 21005KT 3SM BR OVC007=

USA.gov is the U.S. government's official web portal to all federal, state and local government web resources and services.